sensor_id;sensor_type;location;lat;lon;timestamp;pressure;altitude;pressure_sealevel;temperature;humidity
60319;BME280;46163;52.306;5.634;2022-09-12T00:00:48;101642.47;;;21.54;59.30
60319;BME280;46163;52.306;5.634;2022-09-12T00:03:14;101642.00;;;21.57;59.35
60319;BME280;46163;52.306;5.634;2022-09-12T00:05:44;101638.72;;;21.55;59.46
60319;BME280;46163;52.306;5.634;2022-09-12T00:08:12;101634.34;;;21.54;59.48
60319;BME280;46163;52.306;5.634;2022-09-12T00:10:42;101635.22;;;21.55;59.21
60319;BME280;46163;52.306;5.634;2022-09-12T00:13:08;101642.75;;;21.53;59.64
60319;BME280;46163;52.306;5.634;2022-09-12T00:15:41;101623.50;;;21.49;59.45
60319;BME280;46163;52.306;5.634;2022-09-12T00:18:14;101631.09;;;21.52;59.46
60319;BME280;46163;52.306;5.634;2022-09-12T00:20:43;101631.34;;;21.51;59.66
60319;BME280;46163;52.306;5.634;2022-09-12T00:23:09;101626.44;;;21.48;59.56
60319;BME280;46163;52.306;5.634;2022-09-12T00:25:46;101626.44;;;21.48;59.58
60319;BME280;46163;52.306;5.634;2022-09-12T00:28:14;101620.53;;;21.51;59.26
60319;BME280;46163;52.306;5.634;2022-09-12T00:30:46;101626.44;;;21.48;59.46
60319;BME280;46163;52.306;5.634;2022-09-12T00:33:13;101623.69;;;21.42;59.25
60319;BME280;46163;52.306;5.634;2022-09-12T00:35:45;101616.09;;;21.44;59.33
60319;BME280;46163;52.306;5.634;2022-09-12T00:38:12;101617.19;;;21.43;59.69
60319;BME280;46163;52.306;5.634;2022-09-12T00:40:41;101618.81;;;21.44;59.58
60319;BME280;46163;52.306;5.634;2022-09-12T00:45:55;101611.22;;;21.41;59.32
60319;BME280;46163;52.306;5.634;2022-09-12T00:48:28;101594.41;;;21.39;59.40
60319;BME280;46163;52.306;5.634;2022-09-12T00:50:57;101599.81;;;21.39;59.60
60319;BME280;46163;52.306;5.634;2022-09-12T00:53:22;101603.34;;;21.40;59.33
60319;BME280;46163;52.306;5.634;2022-09-12T00:55:49;101599.28;;;21.37;59.44
60319;BME280;46163;52.306;5.634;2022-09-12T00:58:35;101591.16;;;21.37;59.30
60319;BME280;46163;52.306;5.634;2022-09-12T01:01:04;101589.25;;;21.38;59.28
60319;BME280;46163;52.306;5.634;2022-09-12T01:03:29;101596.78;;;21.36;59.21
60319;BME280;46163;52.306;5.634;2022-09-12T01:06:03;101592.44;;;21.35;59.51
60319;BME280;46163;52.306;5.634;2022-09-12T01:08:32;101587.84;;;21.35;59.18
60319;BME280;46163;52.306;5.634;2022-09-12T01:10:58;101583.47;;;21.29;59.55
60319;BME280;46163;52.306;5.634;2022-09-12T01:13:24;101584.84;;;21.32;59.34
60319;BME280;46163;52.306;5.634;2022-09-12T01:15:50;101579.69;;;21.30;59.36
60319;BME280;46163;52.306;5.634;2022-09-12T01:21:13;101582.41;;;21.30;59.22
60319;BME280;46163;52.306;5.634;2022-09-12T01:32:38;101581.81;;;21.28;59.49
60319;BME280;46163;52.306;5.634;2022-09-12T01:35:31;101573.94;;;21.27;59.21
60319;BME280;46163;52.306;5.634;2022-09-12T01:38:24;101582.28;;;21.25;59.12
60319;BME280;46163;52.306;5.634;2022-09-12T01:44:10;101577.97;;;21.24;59.65
60319;BME280;46163;52.306;5.634;2022-09-12T01:46:18;101579.84;;;21.24;59.41
60319;BME280;46163;52.306;5.634;2022-09-12T01:49:06;101580.94;;;21.23;59.28
60319;BME280;46163;52.306;5.634;2022-09-12T01:51:36;101578.47;;;21.21;59.27
60319;BME280;46163;52.306;5.634;2022-09-12T01:54:17;101570.34;;;21.21;59.17
60319;BME280;46163;52.306;5.634;2022-09-12T01:56:46;101569.78;;;21.19;59.30
60319;BME280;46163;52.306;5.634;2022-09-12T01:59:22;101567.66;;;21.21;59.29
60319;BME280;46163;52.306;5.634;2022-09-12T02:04:32;101560.84;;;21.18;59.16
60319;BME280;46163;52.306;5.634;2022-09-12T02:07:35;101557.31;;;21.18;59.54
60319;BME280;46163;52.306;5.634;2022-09-12T02:10:10;101539.13;;;21.13;59.34
60319;BME280;46163;52.306;5.634;2022-09-12T02:12:46;101541.31;;;21.16;59.48
60319;BME280;46163;52.306;5.634;2022-09-12T02:15:16;101539.69;;;21.15;59.54
60319;BME280;46163;52.306;5.634;2022-09-12T02:17:45;101529.88;;;21.09;59.25
60319;BME280;46163;52.306;5.634;2022-09-12T02:20:25;101541.84;;;21.13;59.53
60319;BME280;46163;52.306;5.634;2022-09-12T02:22:52;101535.53;;;21.08;59.33
60319;BME280;46163;52.306;5.634;2022-09-12T02:25:20;101528.81;;;21.10;59.22
60319;BME280;46163;52.306;5.634;2022-09-12T02:27:57;101534.47;;;21.09;59.40
60319;BME280;46163;52.306;5.634;2022-09-12T02:30:28;101532.31;;;21.11;59.46
60319;BME280;46163;52.306;5.634;2022-09-12T02:33:00;101538.00;;;21.09;59.27
60319;BME280;46163;52.306;5.634;2022-09-12T02:35:38;101537.19;;;21.09;59.23
60319;BME280;46163;52.306;5.634;2022-09-12T02:38:13;101534.72;;;21.07;59.48
60319;BME280;46163;52.306;5.634;2022-09-12T02:40:44;101527.69;;;21.06;59.47
60319;BME280;46163;52.306;5.634;2022-09-12T02:43:09;101533.09;;;21.06;59.31
60319;BME280;46163;52.306;5.634;2022-09-12T02:45:35;101528.50;;;21.07;59.35
60319;BME280;46163;52.306;5.634;2022-09-12T02:48:23;101519.81;;;21.05;59.19
60319;BME280;46163;52.306;5.634;2022-09-12T02:50:56;101525.25;;;21.05;59.30
60319;BME280;46163;52.306;5.634;2022-09-12T02:53:22;101522.78;;;21.03;59.20
60319;BME280;46163;52.306;5.634;2022-09-12T02:55:48;101514.31;;;20.95;59.49
60319;BME280;46163;52.306;5.634;2022-09-12T02:58:18;101517.63;;;21.02;59.35
60319;BME280;46163;52.306;5.634;2022-09-12T03:12:29;101497.56;;;20.98;59.23
60319;BME280;46163;52.306;5.634;2022-09-12T03:18:23;101505.13;;;20.96;59.22
60319;BME280;46163;52.306;5.634;2022-09-12T03:24:06;101495.38;;;20.95;59.33
60319;BME280;46163;52.306;5.634;2022-09-12T03:26:46;101496.41;;;20.94;59.48
60319;BME280;46163;52.306;5.634;2022-09-12T03:29:13;101499.13;;;20.94;59.13
60319;BME280;46163;52.306;5.634;2022-09-12T03:31:51;101499.13;;;20.94;59.26
60319;BME280;46163;52.306;5.634;2022-09-12T03:34:18;101493.16;;;20.92;59.17
60319;BME280;46163;52.306;5.634;2022-09-12T03:36:44;101476.88;;;20.86;59.15
60319;BME280;46163;52.306;5.634;2022-09-12T03:39:10;101489.88;;;20.89;59.07
60319;BME280;46163;52.306;5.634;2022-09-12T03:41:35;101489.06;;;20.89;59.20
60319;BME280;46163;52.306;5.634;2022-09-12T03:44:01;101495.28;;;20.89;59.34
60319;BME280;46163;52.306;5.634;2022-09-12T03:46:27;101486.63;;;20.87;59.49
60319;BME280;46163;52.306;5.634;2022-09-12T03:48:52;101489.34;;;20.87;59.21
60319;BME280;46163;52.306;5.634;2022-09-12T03:51:17;101485.00;;;20.86;59.44
60319;BME280;46163;52.306;5.634;2022-09-12T03:53:43;101483.38;;;20.85;59.45
60319;BME280;46163;52.306;5.634;2022-09-12T03:56:10;101478.78;;;20.86;59.45
60319;BME280;46163;52.306;5.634;2022-09-12T03:58:36;101480.66;;;20.85;59.22
60319;BME280;46163;52.306;5.634;2022-09-12T04:01:07;101478.44;;;20.82;59.30
60319;BME280;46163;52.306;5.634;2022-09-12T04:03:36;101480.06;;;20.83;59.49
60319;BME280;46163;52.306;5.634;2022-09-12T04:06:02;101468.13;;;20.79;59.52
60319;BME280;46163;52.306;5.634;2022-09-12T04:08:27;101458.38;;;20.78;59.43
60319;BME280;46163;52.306;5.634;2022-09-12T04:10:53;101465.97;;;20.81;59.15
60319;BME280;46163;52.306;5.634;2022-09-12T04:13:18;101466.81;;;20.82;59.53
60319;BME280;46163;52.306;5.634;2022-09-12T04:15:55;101467.06;;;20.80;59.16
60319;BME280;46163;52.306;5.634;2022-09-12T04:18:20;101472.47;;;20.80;59.16
60319;BME280;46163;52.306;5.634;2022-09-12T04:20:45;101468.66;;;20.76;59.25
60319;BME280;46163;52.306;5.634;2022-09-12T04:23:11;101458.88;;;20.75;59.17
60319;BME280;46163;52.306;5.634;2022-09-12T04:25:36;101471.09;;;20.78;59.30
60319;BME280;46163;52.306;5.634;2022-09-12T04:28:04;101464.88;;;20.77;59.09
60319;BME280;46163;52.306;5.634;2022-09-12T04:30:30;101474.06;;;20.76;59.38
60319;BME280;46163;52.306;5.634;2022-09-12T04:32:55;101462.09;;;20.72;59.15
60319;BME280;46163;52.306;5.634;2022-09-12T04:35:21;101462.41;;;20.76;59.39
60319;BME280;46163;52.306;5.634;2022-09-12T04:37:46;101467.00;;;20.75;59.10
60319;BME280;46163;52.306;5.634;2022-09-12T04:40:12;101467.25;;;20.74;59.37
60319;BME280;46163;52.306;5.634;2022-09-12T04:42:39;101469.13;;;20.73;59.25
60319;BME280;46163;52.306;5.634;2022-09-12T04:45:05;101471.28;;;20.71;59.35
60319;BME280;46163;52.306;5.634;2022-09-12T04:47:31;101471.84;;;20.73;59.07
60319;BME280;46163;52.306;5.634;2022-09-12T04:49:57;101472.09;;;20.72;59.18
60319;BME280;46163;52.306;5.634;2022-09-12T04:52:22;101472.84;;;20.67;59.42
60319;BME280;46163;52.306;5.634;2022-09-12T04:54:48;101474.25;;;20.70;59.46
60319;BME280;46163;52.306;5.634;2022-09-12T04:57:14;101470.72;;;20.69;59.23
60319;BME280;46163;52.306;5.634;2022-09-12T04:59:39;101475.31;;;20.69;59.42
60319;BME280;46163;52.306;5.634;2022-09-12T05:02:05;101471.81;;;20.68;59.43
60319;BME280;46163;52.306;5.634;2022-09-12T05:04:30;101469.91;;;20.69;59.15
60319;BME280;46163;52.306;5.634;2022-09-12T05:06:56;101462.53;;;20.64;59.40
60319;BME280;46163;52.306;5.634;2022-09-12T05:09:21;101474.72;;;20.67;58.93
60319;BME280;46163;52.306;5.634;2022-09-12T05:11:46;101467.69;;;20.66;59.05
60319;BME280;46163;52.306;5.634;2022-09-12T05:14:12;101473.91;;;20.66;59.38
60319;BME280;46163;52.306;5.634;2022-09-12T05:16:38;101466.06;;;20.65;59.26
60319;BME280;46163;52.306;5.634;2022-09-12T05:19:03;101464.44;;;20.64;59.13
60319;BME280;46163;52.306;5.634;2022-09-12T05:21:29;101462.53;;;20.64;59.23
60319;BME280;46163;52.306;5.634;2022-09-12T05:23:56;101462.78;;;20.63;59.13
60319;BME280;46163;52.306;5.634;2022-09-12T05:26:23;101470.66;;;20.64;59.15
60319;BME280;46163;52.306;5.634;2022-09-12T05:28:50;101471.72;;;20.63;59.11
60319;BME280;46163;52.306;5.634;2022-09-12T05:31:19;101474.69;;;20.62;59.18
60319;BME280;46163;52.306;5.634;2022-09-12T05:33:46;101472.25;;;20.60;59.36
60319;BME280;46163;52.306;5.634;2022-09-12T05:36:14;101460.84;;;20.58;59.32
60319;BME280;46163;52.306;5.634;2022-09-12T05:38:41;101461.66;;;20.58;59.30
60319;BME280;46163;52.306;5.634;2022-09-12T05:41:09;101468.13;;;20.57;59.28
60319;BME280;46163;52.306;5.634;2022-09-12T05:43:37;101461.09;;;20.56;59.37
60319;BME280;46163;52.306;5.634;2022-09-12T05:46:05;101463.78;;;20.56;59.34
60319;BME280;46163;52.306;5.634;2022-09-12T05:48:34;101462.72;;;20.57;59.39
60319;BME280;46163;52.306;5.634;2022-09-12T05:51:08;101459.78;;;20.59;59.59
60319;BME280;46163;52.306;5.634;2022-09-12T05:53:35;101450.59;;;20.60;59.48
60319;BME280;46163;52.306;5.634;2022-09-12T05:56:05;101454.94;;;20.61;59.53
60319;BME280;46163;52.306;5.634;2022-09-12T05:58:32;101456.84;;;20.60;59.58
60319;BME280;46163;52.306;5.634;2022-09-12T06:01:13;101463.88;;;20.62;59.54
60319;BME280;46163;52.306;5.634;2022-09-12T06:03:51;101455.75;;;20.62;59.69
60319;BME280;46163;52.306;5.634;2022-09-12T06:06:29;101457.38;;;20.63;59.74
60319;BME280;46163;52.306;5.634;2022-09-12T06:09:08;101447.38;;;20.63;59.51
60319;BME280;46163;52.306;5.634;2022-09-12T06:11:35;101446.56;;;20.63;59.40
60319;BME280;46163;52.306;5.634;2022-09-12T06:14:14;101454.97;;;20.66;59.26
60319;BME280;46163;52.306;5.634;2022-09-12T06:16:40;101458.50;;;20.67;59.55
60319;BME280;46163;52.306;5.634;2022-09-12T06:19:12;101446.88;;;20.66;59.32
60319;BME280;46163;52.306;5.634;2022-09-12T06:21:38;101454.75;;;20.68;59.13
60319;BME280;46163;52.306;5.634;2022-09-12T06:24:04;101454.50;;;20.69;59.14
60319;BME280;46163;52.306;5.634;2022-09-12T06:26:31;101456.13;;;20.70;59.26
60319;BME280;46163;52.306;5.634;2022-09-12T06:28:59;101458.56;;;20.72;59.37
60319;BME280;46163;52.306;5.634;2022-09-12T06:31:30;101462.09;;;20.72;59.34
60319;BME280;46163;52.306;5.634;2022-09-12T06:33:59;101465.34;;;20.74;59.16
60319;BME280;46163;52.306;5.634;2022-09-12T06:36:29;101459.13;;;20.74;59.11
60319;BME280;46163;52.306;5.634;2022-09-12T06:38:59;101456.75;;;20.77;58.99
60319;BME280;46163;52.306;5.634;2022-09-12T06:41:27;101461.91;;;20.79;59.12
60319;BME280;46163;52.306;5.634;2022-09-12T06:43:53;101453.53;;;20.80;58.83
60319;BME280;46163;52.306;5.634;2022-09-12T06:46:19;101451.91;;;20.79;58.68
60319;BME280;46163;52.306;5.634;2022-09-12T06:48:47;101440.47;;;20.72;58.71
60319;BME280;46163;52.306;5.634;2022-09-12T06:51:14;101449.25;;;20.84;58.94
60319;BME280;46163;52.306;5.634;2022-09-12T06:53:41;101443.34;;;20.87;58.86
60319;BME280;46163;52.306;5.634;2022-09-12T06:56:26;101444.72;;;20.90;58.55
60319;BME280;46163;52.306;5.634;2022-09-12T06:58:55;101439.03;;;20.92;58.80
60319;BME280;46163;52.306;5.634;2022-09-12T07:01:30;101435.25;;;20.93;58.72
60319;BME280;46163;52.306;5.634;2022-09-12T07:04:01;101439.09;;;20.97;58.54
60319;BME280;46163;52.306;5.634;2022-09-12T07:06:29;101438.84;;;20.98;58.44
60319;BME280;46163;52.306;5.634;2022-09-12T07:08:58;101447.50;;;21.00;58.67
60319;BME280;46163;52.306;5.634;2022-09-12T07:11:29;101450.78;;;21.02;58.34
60319;BME280;46163;52.306;5.634;2022-09-12T07:14:00;101450.78;;;21.02;58.58
60319;BME280;46163;52.306;5.634;2022-09-12T07:16:26;101450.53;;;21.04;58.07
60319;BME280;46163;52.306;5.634;2022-09-12T07:18:59;101451.09;;;21.06;58.17
60319;BME280;46163;52.306;5.634;2022-09-12T07:21:38;101447.31;;;21.07;58.21
60319;BME280;46163;52.306;5.634;2022-09-12T07:24:04;101447.88;;;21.09;58.18
60319;BME280;46163;52.306;5.634;2022-09-12T07:26:30;101446.56;;;21.11;57.84
60319;BME280;46163;52.306;5.634;2022-09-12T07:28:56;101446.03;;;21.14;57.70
60319;BME280;46163;52.306;5.634;2022-09-12T07:31:24;101438.22;;;21.18;57.80
60319;BME280;46163;52.306;5.634;2022-09-12T07:33:50;101443.38;;;21.20;57.86
60319;BME280;46163;52.306;5.634;2022-09-12T07:36:18;101446.41;;;21.23;57.44
60319;BME280;46163;52.306;5.634;2022-09-12T07:38:44;101445.06;;;21.26;57.81
60319;BME280;46163;52.306;5.634;2022-09-12T07:41:19;101439.19;;;21.29;57.63
60319;BME280;46163;52.306;5.634;2022-09-12T07:43:45;101439.72;;;21.31;57.36
60319;BME280;46163;52.306;5.634;2022-09-12T07:46:11;101435.94;;;21.32;57.32
60319;BME280;46163;52.306;5.634;2022-09-12T07:48:37;101442.19;;;21.32;57.02
60319;BME280;46163;52.306;5.634;2022-09-12T07:51:04;101441.91;;;21.34;57.11
60319;BME280;46163;52.306;5.634;2022-09-12T07:53:33;101443.53;;;21.35;56.90
60319;BME280;46163;52.306;5.634;2022-09-12T07:56:00;101446.81;;;21.37;57.22
60319;BME280;46163;52.306;5.634;2022-09-12T07:58:27;101437.63;;;21.38;57.16
60319;BME280;46163;52.306;5.634;2022-09-12T08:00:52;101443.34;;;21.41;56.78
60319;BME280;46163;52.306;5.634;2022-09-12T08:03:18;101430.88;;;21.40;56.75
60319;BME280;46163;52.306;5.634;2022-09-12T08:05:43;101439.00;;;21.40;57.21
60319;BME280;46163;52.306;5.634;2022-09-12T08:08:09;101441.44;;;21.42;56.77
60319;BME280;46163;52.306;5.634;2022-09-12T08:10:35;101437.09;;;21.41;56.73
60319;BME280;46163;52.306;5.634;2022-09-12T08:13:00;101450.69;;;21.46;57.03
60319;BME280;46163;52.306;5.634;2022-09-12T08:15:30;101452.06;;;21.49;56.69
60319;BME280;46163;52.306;5.634;2022-09-12T08:17:55;101445.28;;;21.46;56.75
60319;BME280;46163;52.306;5.634;2022-09-12T08:20:21;101446.94;;;21.52;56.60
60319;BME280;46163;52.306;5.634;2022-09-12T08:22:46;101445.31;;;21.51;56.58
60319;BME280;46163;52.306;5.634;2022-09-12T08:25:12;101438.00;;;21.52;56.85
60319;BME280;46163;52.306;5.634;2022-09-12T08:27:37;101442.91;;;21.55;56.43
60319;BME280;46163;52.306;5.634;2022-09-12T08:30:04;101441.53;;;21.52;56.58
60319;BME280;46163;52.306;5.634;2022-09-12T08:32:30;101442.38;;;21.58;56.32
60319;BME280;46163;52.306;5.634;2022-09-12T08:34:55;101427.44;;;21.50;56.57
60319;BME280;46163;52.306;5.634;2022-09-12T08:37:21;101442.94;;;21.60;56.64
60319;BME280;46163;52.306;5.634;2022-09-12T08:39:47;101423.91;;;21.50;56.64
60319;BME280;46163;52.306;5.634;2022-09-12T08:42:34;101440.53;;;21.63;56.54
60319;BME280;46163;52.306;5.634;2022-09-12T08:45:09;101443.25;;;21.63;56.22
60319;BME280;46163;52.306;5.634;2022-09-12T08:47:42;101441.91;;;21.66;56.49
60319;BME280;46163;52.306;5.634;2022-09-12T08:52:55;101444.09;;;21.69;56.58
60319;BME280;46163;52.306;5.634;2022-09-12T08:57:51;101440.28;;;21.70;56.98
60319;BME280;46163;52.306;5.634;2022-09-12T09:00:17;101434.06;;;21.69;56.42
60319;BME280;46163;52.306;5.634;2022-09-12T09:03:18;101431.91;;;21.71;56.77
60319;BME280;46163;52.306;5.634;2022-09-12T09:06:02;101435.47;;;21.72;57.05
60319;BME280;46163;52.306;5.634;2022-09-12T09:08:55;101427.34;;;21.72;56.90
60319;BME280;46163;52.306;5.634;2022-09-12T09:11:43;101434.38;;;21.73;56.87
60319;BME280;46163;52.306;5.634;2022-09-12T09:17:27;101419.75;;;21.74;56.66
60319;BME280;46163;52.306;5.634;2022-09-12T09:20:29;101422.72;;;21.72;57.10
60319;BME280;46163;52.306;5.634;2022-09-12T10:17:43;101376.59;;;21.62;57.30
60319;BME280;46163;52.306;5.634;2022-09-12T10:20:32;101376.09;;;21.65;57.54
60319;BME280;46163;52.306;5.634;2022-09-12T10:22:58;101374.75;;;21.68;57.66
60319;BME280;46163;52.306;5.634;2022-09-12T10:25:25;101365.53;;;21.64;57.58
60319;BME280;46163;52.306;5.634;2022-09-12T10:27:58;101372.63;;;21.75;57.50
60319;BME280;46163;52.306;5.634;2022-09-12T10:30:31;101366.66;;;21.78;57.38
60319;BME280;46163;52.306;5.634;2022-09-12T10:33:04;101359.09;;;21.80;57.19
60319;BME280;46163;52.306;5.634;2022-09-12T10:35:47;101361.28;;;21.88;57.19
60319;BME280;46163;52.306;5.634;2022-09-12T10:38:23;101350.75;;;21.92;56.66
60319;BME280;46163;52.306;5.634;2022-09-12T10:41:03;101355.13;;;21.98;56.75
60319;BME280;46163;52.306;5.634;2022-09-12T10:46:26;101364.44;;;22.07;57.12
60319;BME280;46163;52.306;5.634;2022-09-12T10:49:21;101356.84;;;22.14;56.65
60319;BME280;46163;52.306;5.634;2022-09-12T10:52:15;101349.00;;;22.18;56.57
60319;BME280;46163;52.306;5.634;2022-09-12T10:54:55;101347.13;;;22.18;56.59
60319;BME280;46163;52.306;5.634;2022-09-12T10:57:41;101331.38;;;22.15;56.52
60319;BME280;46163;52.306;5.634;2022-09-12T11:00:26;101346.88;;;22.30;56.34
60319;BME280;46163;52.306;5.634;2022-09-12T11:09:29;101321.94;;;22.38;56.34
60319;BME280;46163;52.306;5.634;2022-09-12T11:32:52;101336.91;;;22.66;56.08
60319;BME280;46163;52.306;5.634;2022-09-12T11:36:11;101323.91;;;22.63;56.14
60319;BME280;46163;52.306;5.634;2022-09-12T11:41:33;101325.53;;;22.74;55.62
60319;BME280;46163;52.306;5.634;2022-09-12T11:44:32;101326.91;;;22.77;55.84
60319;BME280;46163;52.306;5.634;2022-09-12T11:47:10;101317.97;;;22.76;56.02
60319;BME280;46163;52.306;5.634;2022-09-12T11:49:53;101333.41;;;22.81;55.81
60319;BME280;46163;52.306;5.634;2022-09-12T11:53:10;101328.81;;;22.81;55.56
60319;BME280;46163;52.306;5.634;2022-09-12T11:55:53;101278.34;;;22.60;55.96
60319;BME280;46163;52.306;5.634;2022-09-12T12:07:25;101293.25;;;22.68;55.48
60319;BME280;46163;52.306;5.634;2022-09-12T12:09:53;101322.06;;;22.89;55.91
60319;BME280;46163;52.306;5.634;2022-09-12T12:12:24;101274.25;;;22.57;55.43
60319;BME280;46163;52.306;5.634;2022-09-12T12:14:53;101283.22;;;22.68;55.42
60319;BME280;46163;52.306;5.634;2022-09-12T12:17:22;101310.66;;;22.92;55.33
60319;BME280;46163;52.306;5.634;2022-09-12T12:20:02;101314.97;;;22.93;55.33
60319;BME280;46163;52.306;5.634;2022-09-12T12:22:28;101302.78;;;22.91;55.24
60319;BME280;46163;52.306;5.634;2022-09-12T12:25:07;101308.50;;;22.94;55.38
60319;BME280;46163;52.306;5.634;2022-09-12T12:27:51;101296.84;;;22.94;55.29
60319;BME280;46163;52.306;5.634;2022-09-12T12:35:44;101287.59;;;22.95;55.11
60319;BME280;46163;52.306;5.634;2022-09-12T12:43:52;101287.56;;;23.00;55.32
60319;BME280;46163;52.306;5.634;2022-09-12T12:46:25;101282.97;;;23.00;54.85
60319;BME280;46163;52.306;5.634;2022-09-12T12:49:06;101278.63;;;22.99;55.08
60319;BME280;46163;52.306;5.634;2022-09-12T12:59:51;101252.00;;;23.01;55.03
60319;BME280;46163;52.306;5.634;2022-09-12T13:02:31;101251.47;;;23.04;55.02
60319;BME280;46163;52.306;5.634;2022-09-12T13:04:59;101248.75;;;23.09;54.98
60319;BME280;46163;52.306;5.634;2022-09-12T13:07:37;101233.00;;;23.06;54.89
60319;BME280;46163;52.306;5.634;2022-09-12T13:10:06;101251.72;;;23.18;55.00
60319;BME280;46163;52.306;5.634;2022-09-12T13:12:41;101243.84;;;23.22;54.57
60319;BME280;46163;52.306;5.634;2022-09-12T13:18:04;101231.38;;;23.21;54.39
60319;BME280;46163;52.306;5.634;2022-09-12T13:20:37;101226.47;;;23.23;54.22
60319;BME280;46163;52.306;5.634;2022-09-12T13:23:29;101223.19;;;23.26;54.23
60319;BME280;46163;52.306;5.634;2022-09-12T13:25:59;101215.84;;;23.31;54.25
60319;BME280;46163;52.306;5.634;2022-09-12T13:28:27;101199.03;;;23.24;54.48
60319;BME280;46163;52.306;5.634;2022-09-12T13:31:04;101205.00;;;23.26;54.33
60319;BME280;46163;52.306;5.634;2022-09-12T13:33:48;101197.41;;;23.28;54.79
60319;BME280;46163;52.306;5.634;2022-09-12T13:36:19;101211.22;;;23.37;54.19
60319;BME280;46163;52.306;5.634;2022-09-12T13:44:39;101203.59;;;23.39;54.17
60319;BME280;46163;52.306;5.634;2022-09-12T13:47:09;101189.22;;;23.33;54.15
60319;BME280;46163;52.306;5.634;2022-09-12T13:49:38;101192.19;;;23.42;54.10
60319;BME280;46163;52.306;5.634;2022-09-12T13:52:07;101203.03;;;23.47;54.19
60319;BME280;46163;52.306;5.634;2022-09-12T13:54:36;101197.03;;;23.45;54.31
60319;BME280;46163;52.306;5.634;2022-09-12T13:57:03;101194.59;;;23.49;54.27
60319;BME280;46163;52.306;5.634;2022-09-12T13:59:39;101197.84;;;23.51;54.12
60319;BME280;46163;52.306;5.634;2022-09-12T14:02:20;101203.28;;;23.51;54.23
60319;BME280;46163;52.306;5.634;2022-09-12T14:04:51;101194.34;;;23.45;54.01
60319;BME280;46163;52.306;5.634;2022-09-12T14:12:53;101202.16;;;23.62;54.23
60319;BME280;46163;52.306;5.634;2022-09-12T14:15:27;101200.81;;;23.64;54.12
60319;BME280;46163;52.306;5.634;2022-09-12T14:18:05;101186.94;;;23.66;54.25
60319;BME280;46163;52.306;5.634;2022-09-12T14:20:46;101185.63;;;23.63;53.82
60319;BME280;46163;52.306;5.634;2022-09-12T14:25:54;101186.66;;;23.67;53.93
60319;BME280;46163;52.306;5.634;2022-09-12T14:28:29;101177.19;;;23.65;54.10
60319;BME280;46163;52.306;5.634;2022-09-12T14:33:53;101183.38;;;23.71;53.81
60319;BME280;46163;52.306;5.634;2022-09-12T14:36:34;101172.00;;;23.68;53.92
60319;BME280;46163;52.306;5.634;2022-09-12T14:39:03;101162.44;;;23.71;53.96
60319;BME280;46163;52.306;5.634;2022-09-12T14:41:34;101170.06;;;23.74;54.15
60319;BME280;46163;52.306;5.634;2022-09-12T14:44:05;101156.50;;;23.69;54.18
60319;BME280;46163;52.306;5.634;2022-09-12T14:46:34;101163.25;;;23.77;53.92
60319;BME280;46163;52.306;5.634;2022-09-12T14:49:12;101157.00;;;23.76;53.97
60319;BME280;46163;52.306;5.634;2022-09-12T14:57:00;101132.81;;;23.75;54.11
60319;BME280;46163;52.306;5.634;2022-09-12T15:04:46;101147.94;;;23.91;53.86
60319;BME280;46163;52.306;5.634;2022-09-12T15:07:14;101137.59;;;23.93;53.86
60319;BME280;46163;52.306;5.634;2022-09-12T15:09:43;101137.59;;;23.93;53.71
60319;BME280;46163;52.306;5.634;2022-09-12T15:12:09;101123.50;;;23.91;53.98
60319;BME280;46163;52.306;5.634;2022-09-12T15:14:35;101121.56;;;23.91;53.72
60319;BME280;46163;52.306;5.634;2022-09-12T15:17:00;101128.31;;;23.99;53.98
60319;BME280;46163;52.306;5.634;2022-09-12T15:19:25;101120.72;;;23.96;54.00
60319;BME280;46163;52.306;5.634;2022-09-12T15:21:58;101128.31;;;23.99;53.98
60319;BME280;46163;52.306;5.634;2022-09-12T15:24:30;101130.75;;;24.01;54.03
60319;BME280;46163;52.306;5.634;2022-09-12T15:26:55;101130.97;;;24.04;53.73
60319;BME280;46163;52.306;5.634;2022-09-12T15:29:23;101119.31;;;24.04;53.88
60319;BME280;46163;52.306;5.634;2022-09-12T15:31:49;101120.09;;;24.04;54.20
60319;BME280;46163;52.306;5.634;2022-09-12T15:34:15;101112.53;;;24.01;54.04
60319;BME280;46163;52.306;5.634;2022-09-12T15:36:40;101124.19;;;24.07;54.05
60319;BME280;46163;52.306;5.634;2022-09-12T15:39:07;101125.53;;;24.04;53.96
60319;BME280;46163;52.306;5.634;2022-09-12T15:41:35;101115.78;;;24.03;53.83
60319;BME280;46163;52.306;5.634;2022-09-12T15:44:06;101101.69;;;23.96;53.81
60319;BME280;46163;52.306;5.634;2022-09-12T15:46:32;101106.28;;;24.01;53.82
60319;BME280;46163;52.306;5.634;2022-09-12T15:49:00;101091.38;;;23.93;53.94
60319;BME280;46163;52.306;5.634;2022-09-12T15:51:25;101094.91;;;23.93;53.84
60319;BME280;46163;52.306;5.634;2022-09-12T15:53:51;101092.44;;;23.97;54.20
60319;BME280;46163;52.306;5.634;2022-09-12T15:56:18;101087.06;;;23.92;54.58
60319;BME280;46163;52.306;5.634;2022-09-12T15:58:45;101100.59;;;23.97;54.75
60319;BME280;46163;52.306;5.634;2022-09-12T16:01:19;101107.94;;;23.96;54.67
60319;BME280;46163;52.306;5.634;2022-09-12T16:03:49;101102.50;;;23.96;54.58
60319;BME280;46163;52.306;5.634;2022-09-12T16:06:14;101090.31;;;23.89;54.74
60319;BME280;46163;52.306;5.634;2022-09-12T16:08:40;101088.97;;;23.91;55.06
60319;BME280;46163;52.306;5.634;2022-09-12T16:11:32;101088.38;;;23.94;55.15
60319;BME280;46163;52.306;5.634;2022-09-12T16:14:00;101077.59;;;23.84;55.26
60319;BME280;46163;52.306;5.634;2022-09-12T16:16:27;101080.53;;;23.88;54.88
60319;BME280;46163;52.306;5.634;2022-09-12T16:18:53;101081.63;;;23.87;54.61
60319;BME280;46163;52.306;5.634;2022-09-12T16:21:23;101095.53;;;23.85;54.50
60319;BME280;46163;52.306;5.634;2022-09-12T16:23:49;101087.94;;;23.82;54.17